createdAt,value
2023-02-21T00:00:34.285Z,15.80
2023-02-21T00:01:34.270Z,16.10
2023-02-21T00:02:34.275Z,15.60
2023-02-21T00:03:34.269Z,16.70
2023-02-21T00:04:34.269Z,16.40
2023-02-21T00:05:34.293Z,16.00
2023-02-21T00:06:34.261Z,16.30
2023-02-21T00:07:34.260Z,16.50
2023-02-21T00:08:34.257Z,16.60
2023-02-21T00:09:34.256Z,16.40
2023-02-21T00:10:34.254Z,16.80
2023-02-21T00:11:34.264Z,17.10
2023-02-21T00:12:34.260Z,16.90
2023-02-21T00:13:34.277Z,16.50
2023-02-21T00:14:34.246Z,16.50
2023-02-21T00:15:34.240Z,16.50
2023-02-21T00:16:34.305Z,16.70
2023-02-21T00:17:34.231Z,16.70
2023-02-21T00:18:34.238Z,17.00
2023-02-21T00:19:34.225Z,16.80
2023-02-21T00:20:34.231Z,16.40
2023-02-21T00:21:34.221Z,16.70
2023-02-21T00:22:34.228Z,17.10
2023-02-21T00:23:34.221Z,17.30
2023-02-21T00:24:34.224Z,17.30
2023-02-21T00:25:34.213Z,17.00
2023-02-21T00:26:34.217Z,16.90
2023-02-21T00:27:34.216Z,17.00
2023-02-21T00:28:34.212Z,17.10
2023-02-21T00:29:34.222Z,16.60
2023-02-21T00:30:34.360Z,16.70
2023-02-21T00:31:34.234Z,17.00
2023-02-21T00:32:34.335Z,16.80
2023-02-21T00:33:34.261Z,16.70
2023-02-21T00:34:34.193Z,17.10
2023-02-21T00:35:34.190Z,16.80
2023-02-21T00:36:34.189Z,17.40
2023-02-21T00:37:34.186Z,16.80
2023-02-21T00:38:34.186Z,17.20
2023-02-21T00:39:34.177Z,17.30
2023-02-21T00:40:34.183Z,17.20
2023-02-21T00:41:34.179Z,17.10
2023-02-21T00:42:34.171Z,16.90
2023-02-21T00:43:36.614Z,17.20
2023-02-21T00:44:34.166Z,17.40
2023-02-21T00:45:34.275Z,17.50
2023-02-21T00:46:34.160Z,17.50
2023-02-21T00:47:34.154Z,17.70
2023-02-21T00:48:34.159Z,17.20
2023-02-21T00:49:34.152Z,17.20
2023-02-21T00:50:34.149Z,17.20
2023-02-21T00:51:34.145Z,17.20
2023-02-21T00:52:34.143Z,17.40
2023-02-21T00:53:34.144Z,17.70
2023-02-21T00:54:34.154Z,17.20
2023-02-21T00:55:34.132Z,17.20
2023-02-21T00:56:34.135Z,17.30
2023-02-21T00:57:34.130Z,16.80
2023-02-21T00:58:34.130Z,17.60
2023-02-21T00:59:34.128Z,17.50
2023-02-21T01:00:34.120Z,17.20
2023-02-21T01:01:34.214Z,17.10
2023-02-21T01:02:34.126Z,16.70
2023-02-21T01:03:34.119Z,16.80
2023-02-21T01:04:34.150Z,17.00
2023-02-21T01:05:34.115Z,16.90
2023-02-21T01:06:34.112Z,17.00
2023-02-21T01:07:34.113Z,16.80
2023-02-21T01:08:34.127Z,16.80
2023-02-21T01:09:34.107Z,17.20
2023-02-21T01:10:34.105Z,16.70
2023-02-21T01:11:34.108Z,16.60
2023-02-21T01:12:34.102Z,17.00
2023-02-21T01:13:34.099Z,16.90
2023-02-21T01:14:34.097Z,16.90
2023-02-21T01:15:34.164Z,16.40
2023-02-21T01:16:34.086Z,16.60
2023-02-21T01:17:34.105Z,16.70
2023-02-21T01:18:34.082Z,17.00
2023-02-21T01:19:34.084Z,16.60
2023-02-21T01:20:34.079Z,16.60
2023-02-21T01:21:34.083Z,16.90
2023-02-21T01:22:34.073Z,17.10
2023-02-21T01:23:34.076Z,16.20
2023-02-21T01:24:34.068Z,16.70
2023-02-21T01:25:34.069Z,16.20
2023-02-21T01:26:34.069Z,16.60
2023-02-21T01:27:34.067Z,16.80
2023-02-21T01:28:34.063Z,16.70
2023-02-21T01:29:34.060Z,16.60
2023-02-21T01:30:34.119Z,16.80
2023-02-21T01:31:34.092Z,17.10
2023-02-21T01:32:34.080Z,16.50
2023-02-21T01:33:34.078Z,16.30
2023-02-21T01:34:36.089Z,16.30
2023-02-21T01:35:34.045Z,16.40
2023-02-21T01:36:34.043Z,16.30
2023-02-21T01:37:34.041Z,17.00
2023-02-21T01:38:34.035Z,17.00
2023-02-21T01:39:34.032Z,17.10
2023-02-21T01:40:34.028Z,17.10
2023-02-21T01:41:34.030Z,16.90
2023-02-21T01:42:34.021Z,17.00
2023-02-21T01:43:34.020Z,17.10
2023-02-21T01:44:34.020Z,17.00
2023-02-21T01:45:34.020Z,17.20
2023-02-21T01:46:34.018Z,17.30
2023-02-21T01:47:34.013Z,17.10
2023-02-21T01:48:34.009Z,17.00
2023-02-21T01:49:34.025Z,17.30
2023-02-21T01:50:34.004Z,17.70
2023-02-21T01:51:33.998Z,17.50
2023-02-21T01:52:33.996Z,17.30
2023-02-21T01:53:33.995Z,17.00
2023-02-21T01:54:33.992Z,16.70
2023-02-21T01:55:33.994Z,16.70
2023-02-21T01:56:33.985Z,16.80
2023-02-21T01:57:33.988Z,16.60
2023-02-21T01:58:33.981Z,16.50
2023-02-21T01:59:33.981Z,16.00
2023-02-21T02:00:33.975Z,16.50
2023-02-21T02:01:34.013Z,16.60
2023-02-21T02:02:33.975Z,16.10
2023-02-21T02:03:33.970Z,16.50
2023-02-21T02:04:34.036Z,16.30
2023-02-21T02:05:33.994Z,16.10
2023-02-21T02:06:33.963Z,16.30
2023-02-21T02:07:33.958Z,16.50
2023-02-21T02:08:33.955Z,16.20
2023-02-21T02:09:33.959Z,16.20
2023-02-21T02:10:33.950Z,17.00
2023-02-21T02:11:33.948Z,16.10
2023-02-21T02:12:33.947Z,16.50
2023-02-21T02:13:33.947Z,16.20
2023-02-21T02:14:33.937Z,16.30
2023-02-21T02:15:33.970Z,16.30
2023-02-21T02:16:33.936Z,16.20
2023-02-21T02:17:33.947Z,16.00
2023-02-21T02:18:33.928Z,16.20
2023-02-21T02:19:33.954Z,16.30
2023-02-21T02:20:33.924Z,16.20
2023-02-21T02:21:33.941Z,16.50
2023-02-21T02:22:33.919Z,16.40
2023-02-21T02:23:33.916Z,16.20
2023-02-21T02:24:33.917Z,16.70
2023-02-21T02:25:33.922Z,16.60
2023-02-21T02:26:33.913Z,16.50
2023-02-21T02:27:33.907Z,16.20
2023-02-21T02:28:33.907Z,16.80
2023-02-21T02:29:33.902Z,16.60
2023-02-21T02:30:33.929Z,16.50
2023-02-21T02:31:33.986Z,16.40
2023-02-21T02:32:33.897Z,16.60
2023-02-21T02:33:33.891Z,16.30
2023-02-21T02:34:33.890Z,16.50
2023-02-21T02:35:33.892Z,16.40
2023-02-21T02:36:33.882Z,16.70
2023-02-21T02:37:33.905Z,16.40
2023-02-21T02:38:33.876Z,15.80
2023-02-21T02:39:33.879Z,16.30
2023-02-21T02:40:33.874Z,16.20
2023-02-21T02:41:33.877Z,16.20
2023-02-21T02:42:33.868Z,16.30
2023-02-21T02:43:33.876Z,15.70
2023-02-21T02:44:33.866Z,16.20
2023-02-21T02:45:33.863Z,16.50
2023-02-21T02:46:33.893Z,16.40
2023-02-21T02:47:33.858Z,16.10
2023-02-21T02:48:33.855Z,16.00
2023-02-21T02:49:33.851Z,15.80
2023-02-21T02:50:33.861Z,15.80
2023-02-21T02:51:33.845Z,15.80
2023-02-21T02:52:33.840Z,15.50
2023-02-21T02:53:33.863Z,15.70
2023-02-21T02:54:33.838Z,15.60
2023-02-21T02:55:33.836Z,15.80
2023-02-21T02:56:33.828Z,15.70
2023-02-21T02:57:33.831Z,15.80
2023-02-21T02:58:33.824Z,16.00
2023-02-21T02:59:33.834Z,16.10
2023-02-21T03:00:33.817Z,15.70
2023-02-21T03:01:33.873Z,16.20
2023-02-21T03:02:33.818Z,16.30
2023-02-21T03:03:33.834Z,16.00
2023-02-21T03:04:34.527Z,15.60
2023-02-21T03:05:33.807Z,15.70
2023-02-21T03:06:33.803Z,15.50
2023-02-21T03:07:36.415Z,15.50
2023-02-21T03:08:33.806Z,15.90
2023-02-21T03:09:33.830Z,15.90
2023-02-21T03:10:33.795Z,16.20
2023-02-21T03:11:33.796Z,15.70
2023-02-21T03:12:33.786Z,15.50
2023-02-21T03:13:33.788Z,15.90
2023-02-21T03:14:33.794Z,15.30
2023-02-21T03:15:33.789Z,15.20
2023-02-21T03:16:33.777Z,15.40
2023-02-21T03:17:33.785Z,15.80
2023-02-21T03:18:33.773Z,15.50
2023-02-21T03:19:33.770Z,15.80
2023-02-21T03:20:33.768Z,15.70
2023-02-21T03:21:33.765Z,15.50
2023-02-21T03:22:33.765Z,15.10
2023-02-21T03:23:33.770Z,15.40
2023-02-21T03:24:33.758Z,15.50
2023-02-21T03:25:33.791Z,15.10
2023-02-21T03:26:33.758Z,15.10
2023-02-21T03:27:33.756Z,14.90
2023-02-21T03:28:33.747Z,15.00
2023-02-21T03:29:33.761Z,15.50
2023-02-21T03:30:33.837Z,15.50
2023-02-21T03:31:33.855Z,15.30
2023-02-21T03:32:33.741Z,15.10
2023-02-21T03:33:33.743Z,14.90
2023-02-21T03:34:33.738Z,15.10
2023-02-21T03:35:33.738Z,15.10
2023-02-21T03:36:33.734Z,15.10
2023-02-21T03:37:33.738Z,15.40
2023-02-21T03:38:33.731Z,15.40
2023-02-21T03:39:33.730Z,15.30
2023-02-21T03:40:33.728Z,15.20
2023-02-21T03:41:33.746Z,15.40
2023-02-21T03:42:33.726Z,15.10
2023-02-21T03:43:33.731Z,15.30
2023-02-21T03:44:33.712Z,15.40
2023-02-21T03:45:33.716Z,15.00
2023-02-21T03:46:33.772Z,15.30
2023-02-21T03:47:33.724Z,15.20
2023-02-21T03:48:33.713Z,15.40
2023-02-21T03:49:33.701Z,15.10
2023-02-21T03:50:33.704Z,15.70
2023-02-21T03:51:33.705Z,15.40
2023-02-21T03:52:33.701Z,15.30
2023-02-21T03:53:33.705Z,15.20
2023-02-21T03:54:33.692Z,15.80
2023-02-21T03:55:33.695Z,15.60
2023-02-21T03:56:41.847Z,15.40
2023-02-21T03:57:33.724Z,15.50
2023-02-21T03:58:33.685Z,15.60
2023-02-21T03:59:33.764Z,15.60
2023-02-21T04:00:33.682Z,15.50
2023-02-21T04:01:33.680Z,15.30
2023-02-21T04:02:33.673Z,15.30
2023-02-21T04:03:33.687Z,15.00
2023-02-21T04:04:33.668Z,15.50
2023-02-21T04:05:33.672Z,15.30
2023-02-21T04:06:33.665Z,14.80
2023-02-21T04:07:33.668Z,15.20
2023-02-21T04:08:33.661Z,15.10
2023-02-21T04:09:33.666Z,15.00
2023-02-21T04:10:37.892Z,14.80
2023-02-21T04:11:33.659Z,15.10
2023-02-21T04:12:33.650Z,15.00
2023-02-21T04:13:33.685Z,15.70
2023-02-21T04:14:33.647Z,15.20
2023-02-21T04:15:33.654Z,15.20
2023-02-21T04:16:33.682Z,15.40
2023-02-21T04:17:33.648Z,15.30
2023-02-21T04:18:35.232Z,15.40
2023-02-21T04:19:33.641Z,15.40
2023-02-21T04:20:33.634Z,14.90
2023-02-21T04:21:33.651Z,15.10
2023-02-21T04:22:33.638Z,15.20
2023-02-21T04:23:33.639Z,15.60
2023-02-21T04:24:33.624Z,15.00
2023-02-21T04:25:33.637Z,15.40
2023-02-21T04:26:33.626Z,15.30
2023-02-21T04:27:33.626Z,15.60
2023-02-21T04:28:33.624Z,15.30
2023-02-21T04:29:33.651Z,15.10
2023-02-21T04:30:33.683Z,15.00
2023-02-21T04:31:33.697Z,14.30
2023-02-21T04:32:33.752Z,14.90
2023-02-21T04:33:33.616Z,15.20
2023-02-21T04:34:33.616Z,14.90
2023-02-21T04:35:33.611Z,15.10
2023-02-21T04:36:33.601Z,15.40
2023-02-21T04:37:33.602Z,15.00
2023-02-21T04:38:33.601Z,15.00
2023-02-21T04:39:33.598Z,14.80
2023-02-21T04:40:33.597Z,14.90
2023-02-21T04:41:33.608Z,15.10
2023-02-21T04:42:33.589Z,14.30
2023-02-21T04:43:33.588Z,14.80
2023-02-21T04:45:07.212Z,11.90
2023-02-21T04:46:07.251Z,13.70
2023-02-21T04:47:07.170Z,14.80
2023-02-21T04:48:07.177Z,14.90
2023-02-21T04:49:07.171Z,14.50
2023-02-21T04:50:07.173Z,14.70
2023-02-21T04:51:15.012Z,15.20
2023-02-21T04:52:07.166Z,14.70
2023-02-21T04:53:07.157Z,14.50
2023-02-21T04:54:07.163Z,14.40
2023-02-21T04:55:07.152Z,14.10
2023-02-21T04:56:07.170Z,14.50
2023-02-21T04:57:07.146Z,14.00
2023-02-21T04:58:07.148Z,14.80
2023-02-21T04:59:07.146Z,14.20
2023-02-21T05:00:07.147Z,14.90
2023-02-21T05:01:07.238Z,15.00
2023-02-21T05:02:07.141Z,14.80
2023-02-21T05:03:07.136Z,14.60
2023-02-21T05:04:07.210Z,15.10
2023-02-21T05:05:07.210Z,14.90
2023-02-21T05:06:07.139Z,14.00
2023-02-21T05:07:07.135Z,14.10
2023-02-21T05:08:07.133Z,14.00
2023-02-21T05:09:07.124Z,14.20
2023-02-21T05:10:07.136Z,13.90
2023-02-21T05:11:07.118Z,14.40
2023-02-21T05:12:07.125Z,14.70
2023-02-21T05:13:07.116Z,14.10
2023-02-21T05:14:07.116Z,14.20
2023-02-21T05:15:07.114Z,14.60
2023-02-21T05:16:07.119Z,14.70
2023-02-21T05:17:07.133Z,14.50
2023-02-21T05:18:07.109Z,14.70
2023-02-21T05:19:07.107Z,15.70
2023-02-21T05:20:07.105Z,15.20
2023-02-21T05:21:07.099Z,16.20
2023-02-21T05:22:07.122Z,15.80
2023-02-21T05:23:13.326Z,16.10
2023-02-21T05:24:07.091Z,15.80
2023-02-21T05:25:07.090Z,16.00
2023-02-21T05:26:07.099Z,16.70
2023-02-21T05:27:07.084Z,16.30
2023-02-21T05:28:07.087Z,16.10
2023-02-21T05:29:07.078Z,15.90
2023-02-21T05:30:07.108Z,15.60
2023-02-21T05:31:07.122Z,15.60
2023-02-21T05:32:07.103Z,15.90
2023-02-21T05:33:07.098Z,15.30
2023-02-21T05:34:07.072Z,15.50
2023-02-21T05:35:07.163Z,15.00
2023-02-21T05:36:07.071Z,15.80
2023-02-21T05:37:07.064Z,15.70
2023-02-21T05:38:07.068Z,14.90
2023-02-21T05:39:07.086Z,15.20
2023-02-21T05:40:07.068Z,15.00
2023-02-21T05:41:07.062Z,15.30
2023-02-21T05:42:07.061Z,15.60
2023-02-21T05:43:07.061Z,15.30
2023-02-21T05:44:07.053Z,15.90
2023-02-21T05:45:07.049Z,15.70
2023-02-21T05:46:07.094Z,15.60
2023-02-21T05:47:07.052Z,15.20
2023-02-21T05:48:07.051Z,14.90
2023-02-21T05:49:07.071Z,15.40
2023-02-21T05:50:07.045Z,15.10
2023-02-21T05:51:07.042Z,15.20
2023-02-21T05:52:07.034Z,14.70
2023-02-21T05:53:07.054Z,14.80
2023-02-21T05:54:07.042Z,15.20
2023-02-21T05:55:07.033Z,14.50
2023-02-21T05:56:08.897Z,14.60
2023-02-21T05:57:07.020Z,14.50
2023-02-21T05:58:07.020Z,14.60
2023-02-21T05:59:07.011Z,14.90
2023-02-21T06:00:07.029Z,14.80
2023-02-21T06:01:07.013Z,14.90
2023-02-21T06:02:07.028Z,14.70
2023-02-21T06:03:07.029Z,14.80
2023-02-21T06:04:07.006Z,15.40
2023-02-21T06:05:07.049Z,15.10
2023-02-21T06:06:07.009Z,15.10
2023-02-21T06:07:06.999Z,15.00
2023-02-21T06:08:09.944Z,14.80
2023-02-21T06:09:06.991Z,15.10
2023-02-21T06:10:06.996Z,16.00
2023-02-21T06:11:06.985Z,15.30
2023-02-21T06:12:06.990Z,15.50
2023-02-21T06:13:06.984Z,15.10
2023-02-21T06:14:06.983Z,15.10
2023-02-21T06:15:06.978Z,15.20
2023-02-21T06:16:07.021Z,15.30
2023-02-21T06:17:06.971Z,15.40
2023-02-21T06:18:06.973Z,15.40
2023-02-21T06:19:06.970Z,15.40
2023-02-21T06:20:06.977Z,15.20
2023-02-21T06:21:06.991Z,15.60
2023-02-21T06:22:06.971Z,15.80
2023-02-21T06:23:06.969Z,15.60
2023-02-21T06:24:06.963Z,15.30
2023-02-21T06:25:06.963Z,15.50
2023-02-21T06:26:06.958Z,16.20
2023-02-21T06:27:06.956Z,16.00
2023-02-21T06:28:06.954Z,16.10
2023-02-21T06:29:06.948Z,16.50
2023-02-21T06:30:07.009Z,16.20
2023-02-21T06:31:07.018Z,15.80
2023-02-21T06:32:07.042Z,16.00
2023-02-21T06:33:06.947Z,16.30
2023-02-21T06:34:06.968Z,16.90
2023-02-21T06:35:06.940Z,16.30
2023-02-21T06:36:06.949Z,16.80
2023-02-21T06:37:06.963Z,16.70
2023-02-21T06:38:06.942Z,17.40
2023-02-21T06:39:06.945Z,16.90
2023-02-21T06:40:06.954Z,16.60
2023-02-21T06:41:06.925Z,16.70
2023-02-21T06:42:06.935Z,16.30
2023-02-21T06:43:06.927Z,16.00
2023-02-21T06:44:06.927Z,15.80
2023-02-21T06:45:06.933Z,15.80
2023-02-21T06:46:06.954Z,15.80
2023-02-21T06:47:06.923Z,15.30
2023-02-21T06:48:06.919Z,15.50
2023-02-21T06:49:06.915Z,15.60
2023-02-21T06:50:09.892Z,16.00
2023-02-21T06:51:06.920Z,15.40
2023-02-21T06:52:06.921Z,15.70
2023-02-21T06:53:06.938Z,15.90
2023-02-21T06:54:06.915Z,16.30
2023-02-21T06:55:06.920Z,16.00
2023-02-21T06:56:06.908Z,16.30
2023-02-21T06:57:06.902Z,15.90
2023-02-21T06:58:06.896Z,15.90
2023-02-21T06:59:06.898Z,15.50
2023-02-21T07:00:06.899Z,15.60
2023-02-21T07:01:06.886Z,15.60
2023-02-21T07:02:06.892Z,16.20
2023-02-21T07:03:06.892Z,16.70
2023-02-21T07:04:06.894Z,16.00
2023-02-21T07:05:06.874Z,16.10
2023-02-21T07:06:06.889Z,16.40
2023-02-21T07:07:06.873Z,16.30
2023-02-21T07:08:06.881Z,16.00
2023-02-21T07:09:06.891Z,16.20
2023-02-21T07:10:06.876Z,16.80
2023-02-21T07:11:06.866Z,16.30
2023-02-21T07:12:06.868Z,16.20
2023-02-21T07:13:06.864Z,15.90
2023-02-21T07:14:06.861Z,15.60
2023-02-21T07:15:06.856Z,15.40
2023-02-21T07:16:06.910Z,15.50
2023-02-21T07:17:06.853Z,15.30
2023-02-21T07:18:06.867Z,15.00
2023-02-21T07:19:06.849Z,14.70
2023-02-21T07:20:06.853Z,14.50
2023-02-21T07:21:06.844Z,15.00
2023-02-21T07:22:06.842Z,14.30
2023-02-21T07:23:06.838Z,15.10
2023-02-21T07:24:06.844Z,14.70
2023-02-21T07:25:06.865Z,15.50
2023-02-21T07:26:06.838Z,15.20
2023-02-21T07:27:06.842Z,15.30
2023-02-21T07:28:06.831Z,16.00
2023-02-21T07:29:06.859Z,15.50
2023-02-21T07:30:06.857Z,15.00
2023-02-21T07:31:06.852Z,15.00
2023-02-21T07:32:06.837Z,15.30
2023-02-21T07:33:06.814Z,15.00
2023-02-21T07:34:06.818Z,15.20
2023-02-21T07:35:06.818Z,15.00
2023-02-21T07:36:06.814Z,16.20
2023-02-21T07:37:06.828Z,15.40
2023-02-21T07:38:06.809Z,15.20
2023-02-21T07:39:06.834Z,15.00
2023-02-21T07:40:06.807Z,14.80
2023-02-21T07:41:06.859Z,14.70
2023-02-21T07:42:06.808Z,14.80
2023-02-21T07:43:06.804Z,14.20
2023-02-21T07:44:06.800Z,14.40
2023-02-21T07:45:06.800Z,15.00
2023-02-21T07:46:06.856Z,14.30
2023-02-21T07:47:06.794Z,14.10
2023-02-21T07:48:06.844Z,15.00
2023-02-21T07:49:06.794Z,14.80
2023-02-21T07:50:06.793Z,14.60
2023-02-21T07:51:06.788Z,14.40
2023-02-21T07:52:06.784Z,14.40
2023-02-21T07:53:06.779Z,15.00
2023-02-21T07:54:06.782Z,15.00
2023-02-21T07:55:06.804Z,15.00
2023-02-21T07:56:06.785Z,15.30
2023-02-21T07:57:06.798Z,14.80
2023-02-21T07:58:06.777Z,15.10
2023-02-21T07:59:06.775Z,14.90
2023-02-21T08:00:06.796Z,14.00
2023-02-21T08:01:06.771Z,14.10
2023-02-21T08:02:06.773Z,13.70
2023-02-21T08:03:06.769Z,13.60
2023-02-21T08:04:06.772Z,13.50
2023-02-21T08:05:06.817Z,14.10
2023-02-21T08:06:06.771Z,14.80
2023-02-21T08:07:06.766Z,14.50
2023-02-21T08:08:06.764Z,14.50
2023-02-21T08:09:06.753Z,14.90
2023-02-21T08:10:06.754Z,14.30
2023-02-21T08:11:06.761Z,14.70
2023-02-21T08:12:06.756Z,14.50
2023-02-21T08:13:06.779Z,14.30
2023-02-21T08:14:06.746Z,14.20
2023-02-21T08:15:06.742Z,14.50
2023-02-21T08:16:06.775Z,14.50
2023-02-21T08:17:06.748Z,14.60
2023-02-21T08:18:06.775Z,14.70
2023-02-21T08:19:06.737Z,14.90
2023-02-21T08:20:06.738Z,14.10
2023-02-21T08:21:06.740Z,13.90
2023-02-21T08:22:06.737Z,14.30
2023-02-21T08:23:06.732Z,14.40
2023-02-21T08:24:06.732Z,14.60
2023-02-21T08:25:06.743Z,14.10
2023-02-21T08:26:06.756Z,14.00
2023-02-21T08:27:06.725Z,14.60
2023-02-21T08:28:06.744Z,14.20
2023-02-21T08:29:06.749Z,15.00
2023-02-21T08:30:06.764Z,14.60
2023-02-21T08:31:06.743Z,14.20
2023-02-21T08:32:06.735Z,14.10
2023-02-21T08:33:06.717Z,14.20
2023-02-21T08:34:06.719Z,14.20
2023-02-21T08:35:06.713Z,13.60
2023-02-21T08:36:06.713Z,13.10
2023-02-21T08:37:06.712Z,13.80
2023-02-21T08:38:06.718Z,13.70
2023-02-21T08:39:06.707Z,13.50
2023-02-21T08:40:06.708Z,13.70
2023-02-21T08:41:06.701Z,13.50
2023-02-21T08:42:06.704Z,13.50
2023-02-21T08:43:06.702Z,12.80
2023-02-21T08:44:06.707Z,13.20
2023-02-21T08:45:06.724Z,12.70
2023-02-21T08:46:06.718Z,13.20
2023-02-21T08:47:06.699Z,13.20
2023-02-21T08:48:06.703Z,13.80
2023-02-21T08:49:06.706Z,14.00
2023-02-21T08:50:06.705Z,13.50
2023-02-21T08:51:06.703Z,14.00
2023-02-21T08:52:06.706Z,13.90
2023-02-21T08:53:06.705Z,13.50
2023-02-21T08:54:06.704Z,12.90
2023-02-21T08:55:06.696Z,12.90
2023-02-21T08:56:06.708Z,12.60
2023-02-21T08:57:06.723Z,13.30
2023-02-21T08:58:06.704Z,13.60
2023-02-21T08:59:06.734Z,12.40
2023-02-21T09:00:06.693Z,12.70
2023-02-21T09:01:06.791Z,13.20
2023-02-21T09:02:06.725Z,13.60
2023-02-21T09:03:06.689Z,12.80
2023-02-21T09:04:06.690Z,12.90
2023-02-21T09:05:06.684Z,12.80
2023-02-21T09:06:06.692Z,13.20
2023-02-21T09:07:06.692Z,13.20
2023-02-21T09:08:06.683Z,12.60
2023-02-21T09:09:06.685Z,12.50
2023-02-21T09:10:06.680Z,12.90
2023-02-21T09:11:06.720Z,12.90
2023-02-21T09:12:06.681Z,12.50
2023-02-21T09:13:06.678Z,12.40
2023-02-21T09:14:06.673Z,12.40
2023-02-21T09:15:06.679Z,12.30
2023-02-21T09:16:06.745Z,12.50
2023-02-21T09:17:06.692Z,12.90
2023-02-21T09:18:06.673Z,13.20
2023-02-21T09:19:06.686Z,13.10
2023-02-21T09:20:06.667Z,13.00
2023-02-21T09:21:06.679Z,13.10
2023-02-21T09:22:06.667Z,12.80
2023-02-21T09:23:06.670Z,12.70
2023-02-21T09:24:06.666Z,12.20
2023-02-21T09:25:06.671Z,12.70
2023-02-21T09:26:06.663Z,13.30
2023-02-21T09:27:06.686Z,13.20
2023-02-21T09:28:06.673Z,13.50
2023-02-21T09:29:06.675Z,13.00
2023-02-21T09:30:06.735Z,13.00
2023-02-21T09:31:06.664Z,12.90
2023-02-21T09:32:06.774Z,12.90
2023-02-21T09:33:06.684Z,12.20
2023-02-21T09:34:06.687Z,12.20
2023-02-21T09:35:06.658Z,12.00
2023-02-21T09:36:06.656Z,12.50
2023-02-21T09:37:06.669Z,12.00
2023-02-21T09:38:06.652Z,12.20
2023-02-21T09:39:06.700Z,12.00
2023-02-21T09:40:06.656Z,12.20
2023-02-21T09:41:06.652Z,11.70
2023-02-21T09:42:06.654Z,12.30
2023-02-21T09:43:06.653Z,12.20
2023-02-21T09:44:06.652Z,12.80
2023-02-21T09:45:06.657Z,12.80
2023-02-21T09:46:06.705Z,12.60
2023-02-21T09:47:06.657Z,12.50
2023-02-21T09:48:06.652Z,12.70
2023-02-21T09:49:06.667Z,12.90
2023-02-21T09:50:06.662Z,12.60
2023-02-21T09:51:06.644Z,13.00
2023-02-21T09:52:06.639Z,12.40
2023-02-21T09:53:07.516Z,11.90
2023-02-21T09:54:06.638Z,12.70
2023-02-21T09:55:06.636Z,12.50
2023-02-21T09:56:06.646Z,12.50
2023-02-21T09:57:06.645Z,12.90
2023-02-21T09:58:06.629Z,13.30
2023-02-21T09:59:06.637Z,11.80
2023-02-21T10:00:06.635Z,11.80
2023-02-21T10:01:06.726Z,12.50
2023-02-21T10:02:06.634Z,12.40
2023-02-21T10:03:06.633Z,11.90
2023-02-21T10:04:06.629Z,12.10
2023-02-21T10:05:06.657Z,12.00
2023-02-21T10:06:06.623Z,11.80
2023-02-21T10:07:06.622Z,11.70
2023-02-21T10:08:06.620Z,11.90
2023-02-21T10:09:06.637Z,12.00
2023-02-21T10:10:06.618Z,12.10
2023-02-21T10:11:06.626Z,11.90
2023-02-21T10:12:06.616Z,11.90
2023-02-21T10:13:06.633Z,11.80
2023-02-21T10:14:06.612Z,11.90
2023-02-21T10:15:06.630Z,12.20
2023-02-21T10:16:06.606Z,12.10
2023-02-21T10:17:06.627Z,11.90
2023-02-21T10:18:06.622Z,12.20
2023-02-21T10:19:06.618Z,12.50
2023-02-21T10:20:06.610Z,12.40
2023-02-21T10:21:06.636Z,12.20
2023-02-21T10:22:06.605Z,12.60
2023-02-21T10:23:06.607Z,12.20
2023-02-21T10:24:06.609Z,12.50
2023-02-21T10:25:06.606Z,12.50
2023-02-21T10:26:06.607Z,12.30
2023-02-21T10:27:06.623Z,12.10
2023-02-21T10:28:06.602Z,12.40
2023-02-21T10:29:06.609Z,12.70
2023-02-21T10:30:06.682Z,12.20
2023-02-21T10:31:06.798Z,12.50
2023-02-21T10:32:06.623Z,11.90
2023-02-21T10:33:06.770Z,12.00
2023-02-21T10:34:06.598Z,11.80
2023-02-21T10:35:06.603Z,11.80
2023-02-21T10:36:06.606Z,12.10
2023-02-21T10:37:06.640Z,12.10
2023-02-21T10:38:06.601Z,12.20
2023-02-21T10:39:06.593Z,11.90
2023-02-21T10:40:08.976Z,12.30
2023-02-21T10:41:06.610Z,12.10
2023-02-21T10:42:06.593Z,11.80
2023-02-21T10:43:06.601Z,11.90
2023-02-21T10:44:06.592Z,11.70
2023-02-21T10:45:06.594Z,11.80
2023-02-21T10:46:06.645Z,11.80
2023-02-21T10:47:06.597Z,11.70
2023-02-21T10:48:06.638Z,11.00
2023-02-21T10:49:06.597Z,11.00
2023-02-21T10:50:06.586Z,10.90
2023-02-21T10:51:06.588Z,11.40
2023-02-21T10:52:06.613Z,11.30
2023-02-21T10:53:06.642Z,11.70
2023-02-21T10:54:06.584Z,12.00
2023-02-21T10:55:06.590Z,11.80
2023-02-21T10:56:06.583Z,11.70
2023-02-21T10:57:06.582Z,11.40
2023-02-21T10:58:06.600Z,12.10
2023-02-21T10:59:06.598Z,11.20
2023-02-21T11:00:06.576Z,11.60
2023-02-21T11:01:06.659Z,13.40
2023-02-21T11:02:06.629Z,13.00
2023-02-21T11:03:06.581Z,12.90
2023-02-21T11:04:06.604Z,12.90
2023-02-21T11:05:06.575Z,13.10
2023-02-21T11:06:06.579Z,13.30
2023-02-21T11:07:06.583Z,13.30
2023-02-21T11:08:06.582Z,13.40
2023-02-21T11:09:06.619Z,13.30
2023-02-21T11:10:06.571Z,13.30
2023-02-21T11:11:06.579Z,13.60
2023-02-21T11:12:06.578Z,14.10
2023-02-21T11:13:06.577Z,13.70
2023-02-21T11:14:06.571Z,13.50
2023-02-21T11:15:06.573Z,13.60
2023-02-21T11:16:06.582Z,13.50
2023-02-21T11:17:06.571Z,13.30
2023-02-21T11:18:06.578Z,13.30
2023-02-21T11:19:06.573Z,13.40
2023-02-21T11:20:06.571Z,13.00
2023-02-21T11:21:06.574Z,13.10
2023-02-21T11:22:06.565Z,13.10
2023-02-21T11:23:06.569Z,13.50
2023-02-21T11:24:06.566Z,13.40
2023-02-21T11:25:06.600Z,13.20
2023-02-21T11:26:06.569Z,13.00
2023-02-21T11:27:06.578Z,13.10
2023-02-21T11:28:06.572Z,13.40
2023-02-21T11:29:06.569Z,13.10
2023-02-21T11:30:06.624Z,13.50
2023-02-21T11:31:06.611Z,13.40
2023-02-21T11:32:06.632Z,13.40
2023-02-21T11:33:06.563Z,13.10
2023-02-21T11:34:06.562Z,13.40
2023-02-21T11:35:06.571Z,13.20
2023-02-21T11:36:06.565Z,13.50
2023-02-21T11:37:06.571Z,12.90
2023-02-21T11:38:06.575Z,12.90
2023-02-21T11:39:06.571Z,12.80
2023-02-21T11:40:06.565Z,13.10
2023-02-21T11:41:06.587Z,12.90
2023-02-21T11:42:06.562Z,13.00
2023-02-21T11:43:06.564Z,13.50
2023-02-21T11:44:06.568Z,13.30
2023-02-21T11:45:06.565Z,13.10
2023-02-21T11:46:06.596Z,13.30
2023-02-21T11:47:06.560Z,12.60
2023-02-21T11:48:06.558Z,12.60
2023-02-21T11:49:06.564Z,12.70
2023-02-21T11:50:06.559Z,12.80
2023-02-21T11:51:06.562Z,13.10
2023-02-21T11:52:06.554Z,13.10
2023-02-21T11:53:06.592Z,12.80
2023-02-21T11:54:06.562Z,13.20
2023-02-21T11:55:06.564Z,13.30
2023-02-21T11:56:06.555Z,13.30
2023-02-21T11:57:06.581Z,13.40
2023-02-21T11:58:06.558Z,13.00
2023-02-21T11:59:06.553Z,12.60
2023-02-21T12:00:06.552Z,12.30
2023-02-21T12:01:06.555Z,12.40
2023-02-21T12:02:06.550Z,12.50
2023-02-21T12:03:06.556Z,12.30
2023-02-21T12:04:06.552Z,12.30
2023-02-21T12:05:06.550Z,12.90
2023-02-21T12:06:06.761Z,12.60
2023-02-21T12:07:06.560Z,12.20
2023-02-21T12:08:06.547Z,12.40
2023-02-21T12:09:06.543Z,12.50
2023-02-21T12:10:06.551Z,12.20
2023-02-21T12:11:06.666Z,12.30
2023-02-21T12:12:06.544Z,12.50
2023-02-21T12:13:06.572Z,12.60
2023-02-21T12:14:06.544Z,12.90
2023-02-21T12:15:06.547Z,12.90
2023-02-21T12:16:06.615Z,13.00
2023-02-21T12:17:06.546Z,12.50
2023-02-21T12:18:06.543Z,12.70
2023-02-21T12:19:06.539Z,12.50
2023-02-21T12:20:06.554Z,12.70
2023-02-21T12:21:06.540Z,12.40
2023-02-21T12:22:06.534Z,12.60
2023-02-21T12:23:06.552Z,12.50
2023-02-21T12:24:06.548Z,12.70
2023-02-21T12:25:06.552Z,12.60
2023-02-21T12:26:06.540Z,12.90
2023-02-21T12:27:06.565Z,12.60
2023-02-21T12:28:06.532Z,13.00
2023-02-21T12:29:06.549Z,12.70
2023-02-21T12:30:06.643Z,12.50
2023-02-21T12:31:06.680Z,12.80
2023-02-21T12:32:06.639Z,13.00
2023-02-21T12:33:06.542Z,13.30
2023-02-21T12:34:06.523Z,13.00
2023-02-21T12:35:06.535Z,13.30
2023-02-21T12:36:06.532Z,13.10
2023-02-21T12:37:06.538Z,13.00
2023-02-21T12:38:06.530Z,12.90
2023-02-21T12:39:06.541Z,13.70
2023-02-21T12:40:06.535Z,13.00
2023-02-21T12:41:06.536Z,12.90
2023-02-21T12:42:06.524Z,13.00
2023-02-21T12:43:06.526Z,13.40
2023-02-21T12:44:06.529Z,13.30
2023-02-21T12:45:06.671Z,13.50
2023-02-21T12:46:06.620Z,13.40
2023-02-21T12:47:06.548Z,13.00
2023-02-21T12:48:06.526Z,12.90
2023-02-21T12:49:06.523Z,13.10
2023-02-21T12:50:06.518Z,13.30
2023-02-21T12:51:06.523Z,13.30
2023-02-21T12:52:06.517Z,12.60
2023-02-21T12:53:06.523Z,13.40